Time;durP1;ratioP1;P1;durP2;ratioP2;P2;SDS_P1;SDS_P2;PMS_P1;PMS_P2;Temp;Humidity;BMP_temperature;BMP_pressure;BME280_temperature;BME280_humidity;BME280_pressure;Samples;Min_cycle;Max_cycle;Signal;HPM_P1;HPM_P2
2021/12/07 00:01:02;;;;;;;;;;;;;;;5.43;100.00;97963.19;5074451;28;20286;-83
2021/12/07 00:03:30;;;;;;;;;;;;;;;5.26;100.00;97966.97;5074535;28;20552;-83
2021/12/07 00:05:57;;;;;;;;;;;;;;;4.97;100.00;97979.56;5072913;28;19931;-83
2021/12/07 00:08:25;;;;;;;;;;;;;;;5.10;100.00;97973.06;5074673;28;19929;-83
2021/12/07 00:10:52;;;;;;;;;;;;;;;4.98;100.00;97968.06;5106906;28;19928;-83
2021/12/07 00:13:21;;;;;;;;;;;;;;;5.20;100.00;97961.09;5073109;28;19967;-83
2021/12/07 00:15:48;;;;;;;;;;;;;;;5.52;100.00;97966.22;5072996;28;19924;-83
2021/12/07 00:18:15;;;;;;;;;;;;;;;5.28;100.00;97967.34;5074377;28;19924;-83
2021/12/07 00:20:42;;;;;;;;;;;;;;;5.27;100.00;97977.63;5072921;28;20326;-83
2021/12/07 00:23:10;;;;;;;;;;;;;;;5.13;100.00;97961.19;5072882;28;19924;-83
2021/12/07 00:25:38;;;;;;;;;;;;;;;5.00;100.00;97962.91;5072731;28;20340;-83
2021/12/07 00:28:06;;;;;;;;;;;;;;;5.25;100.00;97963.44;5074469;28;19971;-84
2021/12/07 00:30:35;;;;;;;;;;;;;;;5.27;100.00;97955.47;5073035;28;19932;-83
2021/12/07 00:35:56;;;;;;;;;;;;;;;5.14;100.00;97968.31;5072712;28;19931;-83
2021/12/07 00:38:24;;;;;;;;;;;;;;;5.32;100.00;97968.88;5089607;28;19924;-83
2021/12/07 00:40:58;;;;;;;;;;;;;;;5.31;100.00;97967.31;5073168;28;19924;-83
2021/12/07 00:43:26;;;;;;;;;;;;;;;5.63;100.00;97949.47;5056252;28;19932;-83
2021/12/07 00:45:57;;;;;;;;;;;;;;;5.40;100.00;97941.84;5056049;28;19928;-83
2021/12/07 00:48:25;;;;;;;;;;;;;;;5.01;100.00;97945.09;5056177;28;19936;-83
2021/12/07 00:50:54;;;;;;;;;;;;;;;5.11;100.00;97952.50;5039227;28;20341;-83
2021/12/07 00:57:42;;;;;;;;;;;;;;;5.04;100.00;97940.75;5054127;28;20007;-83
2021/12/07 01:00:15;;;;;;;;;;;;;;;5.12;100.00;97936.66;5052440;28;19925;-83
2021/12/07 01:02:42;;;;;;;;;;;;;;;5.29;100.00;97941.19;5034464;28;19932;-83
2021/12/07 01:05:20;;;;;;;;;;;;;;;5.09;100.00;97941.06;5052095;28;20311;-83
2021/12/07 01:26:51;;;;;;;;;;;;;;;5.20;100.00;97938.16;5086100;28;19925;-81
2021/12/07 01:29:21;;;;;;;;;;;;;;;5.04;100.00;97940.75;5035855;28;19925;-83
2021/12/07 01:45:54;;;;;;;;;;;;;;;4.82;100.00;97926.34;5068735;28;19931;-82
2021/12/07 02:01:51;;;;;;;;;;;;;;;5.68;100.00;97902.66;5068451;28;19924;-82
2021/12/07 02:04:18;;;;;;;;;;;;;;;5.57;100.00;97891.72;5051872;28;19925;-83
2021/12/07 02:06:45;;;;;;;;;;;;;;;5.85;100.00;97890.53;5068507;28;19929;-83
2021/12/07 02:09:13;;;;;;;;;;;;;;;5.80;100.00;97890.22;5036654;28;20082;-83
2021/12/07 02:11:49;;;;;;;;;;;;;;;5.57;100.00;97900.03;5055335;28;19987;-83
2021/12/07 02:14:17;;;;;;;;;;;;;;;5.28;100.00;97907.22;5038973;28;19924;-83
2021/12/07 02:16:48;;;;;;;;;;;;;;;5.68;100.00;97908.19;5038904;28;19925;-83
2021/12/07 02:19:16;;;;;;;;;;;;;;;5.54;100.00;97917.50;5055696;28;20059;-83
2021/12/07 02:21:44;;;;;;;;;;;;;;;5.18;100.00;97910.88;5072126;28;20456;-83
2021/12/07 02:24:18;;;;;;;;;;;;;;;5.44;100.00;97915.69;5055320;28;19932;-83
2021/12/07 02:26:47;;;;;;;;;;;;;;;5.97;100.00;97930.78;5071730;28;19983;-83
2021/12/07 02:29:15;;;;;;;;;;;;;;;6.13;100.00;97930.91;5055273;28;19975;-83
2021/12/07 02:31:43;;;;;;;;;;;;;;;5.94;100.00;97943.47;5054892;28;19924;-83
2021/12/07 02:34:10;;;;;;;;;;;;;;;5.19;100.00;97942.13;5055413;28;19939;-83
2021/12/07 02:36:39;;;;;;;;;;;;;;;5.83;100.00;97953.94;5088052;28;20073;-83
2021/12/07 02:39:08;;;;;;;;;;;;;;;6.06;100.00;97950.44;5038470;28;19932;-83
2021/12/07 02:41:35;;;;;;;;;;;;;;;6.11;100.00;97947.16;5054801;28;19936;-83
2021/12/07 02:44:06;;;;;;;;;;;;;;;6.07;100.00;97952.00;5054969;28;19925;-83
2021/12/07 02:46:34;;;;;;;;;;;;;;;6.23;100.00;97966.78;5054443;28;19931;-83
2021/12/07 02:49:02;;;;;;;;;;;;;;;6.40;100.00;97962.94;5038547;28;19929;-83
2021/12/07 02:51:30;;;;;;;;;;;;;;;6.46;100.00;97968.78;5054843;28;19928;-83
2021/12/07 02:53:58;;;;;;;;;;;;;;;5.92;100.00;97961.75;5055980;28;19925;-83
2021/12/07 02:56:26;;;;;;;;;;;;;;;5.51;100.00;97965.44;5054545;28;20011;-83
2021/12/07 02:59:01;;;;;;;;;;;;;;;5.50;100.00;97972.19;5071112;28;19925;-83
2021/12/07 03:01:34;;;;;;;;;;;;;;;5.24;100.00;97981.22;5071036;28;20023;-83
2021/12/07 03:04:14;;;;;;;;;;;;;;;5.48;100.00;97968.28;5021472;28;19931;-82
2021/12/07 03:07:15;;;;;;;;;;;;;;;5.10;100.00;97953.69;5042920;28;19921;-83
2021/12/07 03:26:24;;;;;;;;;;;;;;;4.23;100.00;97974.75;5020097;28;19932;-82
2021/12/07 03:28:54;;;;;;;;;;;;;;;4.30;100.00;97982.97;5053167;28;20081;-82
2021/12/07 03:31:26;;;;;;;;;;;;;;;4.25;100.00;97982.66;5020134;28;19982;-82
2021/12/07 03:33:54;;;;;;;;;;;;;;;4.14;100.00;97981.94;5012588;28;19932;-82
2021/12/07 03:36:23;;;;;;;;;;;;;;;4.11;100.00;97975.25;5072769;28;19925;-82
2021/12/07 03:38:51;;;;;;;;;;;;;;;4.24;100.00;97970.03;5039920;28;20343;-82
2021/12/07 03:41:19;;;;;;;;;;;;;;;4.04;100.00;97972.56;5023179;28;19932;-82
2021/12/07 03:43:47;;;;;;;;;;;;;;;4.11;100.00;97966.16;5039162;28;19929;-83
2021/12/07 03:46:15;;;;;;;;;;;;;;;4.01;100.00;97956.78;5039881;28;19973;-82
2021/12/07 03:48:43;;;;;;;;;;;;;;;3.98;100.00;97954.84;5023155;28;19924;-82
2021/12/07 03:51:11;;;;;;;;;;;;;;;4.02;100.00;97946.50;5072727;28;19925;-82
2021/12/07 03:53:39;;;;;;;;;;;;;;;4.10;100.00;97935.00;5023187;28;19924;-82
2021/12/07 03:56:08;;;;;;;;;;;;;;;4.29;100.00;97930.84;5023208;28;20011;-82
2021/12/07 03:58:39;;;;;;;;;;;;;;;4.22;100.00;97917.09;5055925;28;19983;-82
2021/12/07 04:01:07;;;;;;;;;;;;;;;4.44;100.00;97924.03;5053084;28;19978;-82
2021/12/07 04:03:36;;;;;;;;;;;;;;;4.38;100.00;97909.03;5037148;28;19929;-82
2021/12/07 04:06:06;;;;;;;;;;;;;;;4.37;100.00;97897.22;5053238;28;19961;-82
2021/12/07 04:08:37;;;;;;;;;;;;;;;4.21;100.00;97885.13;5053518;28;20308;-82
2021/12/07 04:11:05;;;;;;;;;;;;;;;4.36;100.00;97878.25;5020526;28;20020;-82
2021/12/07 04:13:32;;;;;;;;;;;;;;;4.40;100.00;97871.50;5053117;28;20391;-82
2021/12/07 04:16:00;;;;;;;;;;;;;;;4.28;100.00;97854.63;5086894;28;19925;-83
2021/12/07 04:18:29;;;;;;;;;;;;;;;4.24;100.00;97843.59;5036900;28;19924;-82
2021/12/07 04:21:01;;;;;;;;;;;;;;;4.37;100.00;97830.03;5053103;28;19931;-82
2021/12/07 04:23:29;;;;;;;;;;;;;;;4.56;100.00;97816.38;5036573;28;19974;-82
2021/12/07 04:25:56;;;;;;;;;;;;;;;4.66;100.00;97807.19;5069461;28;19936;-83
2021/12/07 04:28:23;;;;;;;;;;;;;;;4.77;100.00;97815.34;5052894;28;19960;-83
2021/12/07 04:30:50;;;;;;;;;;;;;;;4.82;100.00;97812.91;5052907;28;20017;-83
2021/12/07 04:33:17;;;;;;;;;;;;;;;4.77;100.00;97810.56;5068817;28;19925;-83
2021/12/07 04:35:46;;;;;;;;;;;;;;;4.90;100.00;97803.31;5054139;28;19925;-83
2021/12/07 04:38:13;;;;;;;;;;;;;;;4.94;100.00;97804.03;5052934;28;19925;-83
2021/12/07 04:40:41;;;;;;;;;;;;;;;4.75;100.00;97795.59;5069282;28;19959;-82
2021/12/07 04:43:08;;;;;;;;;;;;;;;4.86;100.00;97788.72;5035898;28;19925;-83
2021/12/07 04:45:50;;;;;;;;;;;;;;;4.86;100.00;97785.94;5052638;28;20430;-83
2021/12/07 04:59:02;;;;;;;;;;;;;;;5.85;100.00;97765.81;5052759;28;19925;-83
2021/12/07 05:01:29;;;;;;;;;;;;;;;5.07;100.00;97777.34;5053638;28;19924;-83
2021/12/07 05:03:59;;;;;;;;;;;;;;;5.49;100.00;97785.00;5085829;28;19929;-83
2021/12/07 05:06:30;;;;;;;;;;;;;;;5.51;100.00;97788.13;5068695;28;19968;-83
2021/12/07 05:09:06;;;;;;;;;;;;;;;5.57;100.00;97763.50;5069399;28;19925;-83
2021/12/07 05:12:03;;;;;;;;;;;;;;;4.99;100.00;97747.41;5068679;28;19924;-82
2021/12/07 05:14:35;;;;;;;;;;;;;;;5.12;100.00;97754.72;5085296;28;19925;-82
2021/12/07 05:25:26;;;;;;;;;;;;;;;5.19;100.00;97738.03;5052427;28;19951;-82
2021/12/07 05:38:53;;;;;;;;;;;;;;;5.93;100.00;97697.94;5053374;28;19932;-83
2021/12/07 05:41:22;;;;;;;;;;;;;;;5.83;100.00;97687.84;5052044;28;19932;-83
2021/12/07 05:43:49;;;;;;;;;;;;;;;5.65;100.00;97703.97;5096511;28;19925;-82
2021/12/07 05:46:17;;;;;;;;;;;;;;;5.70;100.00;97689.66;5068906;28;19970;-83
2021/12/07 05:48:44;;;;;;;;;;;;;;;5.50;100.00;97689.59;5059012;28;20020;-83
2021/12/07 05:51:11;;;;;;;;;;;;;;;6.08;100.00;97692.91;5057225;28;19932;-83
2021/12/07 05:53:38;;;;;;;;;;;;;;;6.07;100.00;97686.59;5072324;28;20390;-83
2021/12/07 05:56:05;;;;;;;;;;;;;;;5.25;100.00;97685.72;5055957;28;19975;-82
2021/12/07 05:58:32;;;;;;;;;;;;;;;5.04;100.00;97697.91;5039360;28;19925;-82
2021/12/07 06:00:59;;;;;;;;;;;;;;;4.82;100.00;97693.91;5089117;28;19932;-82
2021/12/07 06:03:27;;;;;;;;;;;;;;;5.63;100.00;97683.44;5056997;28;19931;-82
2021/12/07 06:05:54;;;;;;;;;;;;;;;6.24;100.00;97674.34;5056815;28;19932;-83
2021/12/07 06:08:21;;;;;;;;;;;;;;;5.87;100.00;97669.16;5072305;28;19929;-82
2021/12/07 06:10:49;;;;;;;;;;;;;;;4.97;100.00;97675.88;5088706;28;19924;-82
2021/12/07 06:13:18;;;;;;;;;;;;;;;5.88;100.00;97675.50;5055557;28;19925;-82
2021/12/07 06:15:46;;;;;;;;;;;;;;;6.25;100.00;97664.03;5057031;28;19924;-83
2021/12/07 06:18:13;;;;;;;;;;;;;;;6.49;100.00;97665.50;5056874;28;19952;-83
2021/12/07 06:20:41;;;;;;;;;;;;;;;6.44;100.00;97672.31;5055833;28;20376;-83
2021/12/07 06:23:11;;;;;;;;;;;;;;;6.55;100.00;97655.44;5055086;28;20285;-83
2021/12/07 06:25:38;;;;;;;;;;;;;;;6.73;100.00;97644.72;5056576;28;19939;-83
2021/12/07 06:28:06;;;;;;;;;;;;;;;6.78;100.00;97638.66;5038570;28;19925;-83
2021/12/07 06:30:34;;;;;;;;;;;;;;;5.98;100.00;97633.69;5055223;28;19956;-83
2021/12/07 06:33:02;;;;;;;;;;;;;;;5.83;100.00;97626.09;5055181;28;19925;-83
2021/12/07 06:35:29;;;;;;;;;;;;;;;6.00;100.00;97620.19;5056291;28;19931;-83
2021/12/07 06:37:56;;;;;;;;;;;;;;;5.72;100.00;97606.09;5056140;28;19931;-82
2021/12/07 06:40:23;;;;;;;;;;;;;;;4.83;100.00;97601.38;5055160;28;20043;-82
2021/12/07 06:42:51;;;;;;;;;;;;;;;4.79;100.00;97606.19;5055031;28;19924;-82
2021/12/07 06:45:18;;;;;;;;;;;;;;;4.47;100.00;97608.66;5021846;28;19928;-82
2021/12/07 06:47:45;;;;;;;;;;;;;;;4.49;100.00;97595.22;5054935;28;19966;-82
2021/12/07 06:50:13;;;;;;;;;;;;;;;4.40;100.00;97608.78;5054710;28;19925;-82
2021/12/07 06:52:40;;;;;;;;;;;;;;;4.81;100.00;97595.50;5054680;28;19925;-82
2021/12/07 06:55:07;;;;;;;;;;;;;;;5.22;100.00;97595.97;5054757;28;19931;-82
2021/12/07 06:57:34;;;;;;;;;;;;;;;5.34;100.00;97592.56;5056056;28;19925;-82
2021/12/07 07:00:04;;;;;;;;;;;;;;;5.29;100.00;97587.50;5054736;28;20043;-83
2021/12/07 07:02:31;;;;;;;;;;;;;;;6.15;100.00;97573.53;5087821;28;19925;-83
2021/12/07 07:04:59;;;;;;;;;;;;;;;5.84;100.00;97566.66;5087571;28;19925;-82
2021/12/07 07:07:27;;;;;;;;;;;;;;;5.90;100.00;97553.88;5055483;28;19935;-83
2021/12/07 07:09:54;;;;;;;;;;;;;;;5.95;100.00;97553.38;5054561;28;19988;-82
2021/12/07 07:12:21;;;;;;;;;;;;;;;5.63;100.00;97552.00;5071922;28;19924;-82
2021/12/07 07:14:49;;;;;;;;;;;;;;;4.77;100.00;97542.19;5074828;28;20398;-82
2021/12/07 07:17:16;;;;;;;;;;;;;;;5.13;100.00;97534.03;5074876;28;19928;-81
2021/12/07 07:19:44;;;;;;;;;;;;;;;5.73;100.00;97525.28;5075885;28;20007;-82
2021/12/07 07:22:11;;;;;;;;;;;;;;;6.22;100.00;97501.25;5074507;28;19928;-79
2021/12/07 07:24:41;;;;;;;;;;;;;;;5.80;100.00;97494.66;5074091;28;19932;-83
2021/12/07 07:27:08;;;;;;;;;;;;;;;5.52;100.00;97495.28;5075282;28;19997;-83
2021/12/07 07:29:35;;;;;;;;;;;;;;;5.36;100.00;97487.66;5074063;28;19931;-83
2021/12/07 07:32:02;;;;;;;;;;;;;;;5.18;100.00;97486.47;5073981;28;19924;-83
2021/12/07 07:34:29;;;;;;;;;;;;;;;5.38;100.00;97476.16;5075089;28;19925;-83
2021/12/07 07:36:57;;;;;;;;;;;;;;;5.99;100.00;97462.56;5063212;28;19948;-83
2021/12/07 07:39:25;;;;;;;;;;;;;;;6.04;100.00;97442.66;5042806;28;19924;-84
2021/12/07 07:41:53;;;;;;;;;;;;;;;5.59;100.00;97434.94;5090358;28;19962;-83
2021/12/07 07:44:28;;;;;;;;;;;;;;;5.51;100.00;97439.06;5069411;28;19936;-83
2021/12/07 07:46:56;;;;;;;;;;;;;;;5.64;100.00;97419.81;5053714;28;20336;-83
2021/12/07 07:49:23;;;;;;;;;;;;;;;5.67;100.00;97409.84;5072650;28;19977;-83
2021/12/07 07:51:51;;;;;;;;;;;;;;;5.61;100.00;97404.03;5054590;28;19947;-83
2021/12/07 07:54:18;;;;;;;;;;;;;;;5.60;100.00;97394.94;5054867;28;19929;-82
2021/12/07 07:56:45;;;;;;;;;;;;;;;4.79;100.00;97395.09;5053825;28;19933;-81
2021/12/07 07:59:13;;;;;;;;;;;;;;;5.78;100.00;97390.97;5053775;28;20358;-83
2021/12/07 08:01:40;;;;;;;;;;;;;;;4.98;100.00;97383.28;5061408;28;20270;-83
2021/12/07 08:04:07;;;;;;;;;;;;;;;4.88;100.00;97381.47;5073812;28;19924;-84
2021/12/07 08:06:36;;;;;;;;;;;;;;;4.71;100.00;97375.09;5072932;28;20350;-85
2021/12/07 08:09:05;;;;;;;;;;;;;;;5.03;100.00;97394.63;5057115;28;19924;-86
2021/12/07 08:11:33;;;;;;;;;;;;;;;5.11;100.00;97379.44;5040353;28;20023;-85
2021/12/07 08:14:00;;;;;;;;;;;;;;;5.09;100.00;97362.47;5056868;28;19924;-85
2021/12/07 08:16:28;;;;;;;;;;;;;;;5.08;100.00;97333.22;5056377;28;20720;-84
2021/12/07 08:19:01;;;;;;;;;;;;;;;5.49;100.00;97338.22;5055245;28;19993;-84
2021/12/07 08:21:30;;;;;;;;;;;;;;;5.05;100.00;97308.38;5052877;28;20295;-84
2021/12/07 08:23:57;;;;;;;;;;;;;;;4.70;100.00;97301.63;5058436;28;20360;-83
2021/12/07 08:26:25;;;;;;;;;;;;;;;5.08;100.00;97299.22;5073395;28;20286;-84
2021/12/07 08:28:56;;;;;;;;;;;;;;;5.41;100.00;97306.38;5055671;28;19963;-83
2021/12/07 08:31:23;;;;;;;;;;;;;;;5.85;100.00;97313.22;5073030;28;19925;-84
2021/12/07 08:33:50;;;;;;;;;;;;;;;5.04;100.00;97320.66;5039543;28;19924;-83
2021/12/07 08:36:18;;;;;;;;;;;;;;;5.46;100.00;97314.97;5072922;28;20035;-84
2021/12/07 08:38:47;;;;;;;;;;;;;;;5.70;100.00;97300.91;5089230;28;20370;-84
2021/12/07 08:41:17;;;;;;;;;;;;;;;6.02;100.00;97287.84;5072223;28;19931;-89
2021/12/07 08:43:47;;;;;;;;;;;;;;;6.00;100.00;97264.56;5072929;28;20297;-81
2021/12/07 08:46:15;;;;;;;;;;;;;;;5.86;100.00;97265.69;5072745;28;20567;-83
2021/12/07 08:48:42;;;;;;;;;;;;;;;6.25;100.00;97253.56;5073712;28;19925;-83
2021/12/07 08:51:10;;;;;;;;;;;;;;;5.89;100.00;97237.13;5072993;28;19928;-80
2021/12/07 08:53:44;;;;;;;;;;;;;;;5.55;100.00;97254.19;5056351;28;19924;-80
2021/12/07 09:01:45;;;;;;;;;;;;;;;5.66;100.00;97226.22;5073735;28;20421;-90
2021/12/07 09:04:17;;;;;;;;;;;;;;;5.79;100.00;97187.47;5073683;28;19924;-86
2021/12/07 09:06:45;;;;;;;;;;;;;;;5.82;100.00;97192.94;5039358;28;20358;-87
2021/12/07 09:09:12;;;;;;;;;;;;;;;5.64;100.00;97181.53;5097195;28;19960;-86
2021/12/07 09:11:40;;;;;;;;;;;;;;;5.02;100.00;97177.19;5038257;28;19925;-86
2021/12/07 09:14:13;;;;;;;;;;;;;;;5.82;100.00;97170.00;5083641;28;19925;-86
2021/12/07 09:16:42;;;;;;;;;;;;;;;5.59;100.00;97185.63;5105239;28;20019;-86
2021/12/07 09:19:09;;;;;;;;;;;;;;;5.96;100.00;97181.50;5091474;28;19929;-86
2021/12/07 09:21:37;;;;;;;;;;;;;;;5.81;100.00;97173.97;5073254;28;19925;-86
2021/12/07 09:24:04;;;;;;;;;;;;;;;5.82;100.00;97167.22;5066985;28;20011;-86
2021/12/07 09:26:32;;;;;;;;;;;;;;;5.96;100.00;97155.75;5072097;28;19924;-87
2021/12/07 09:28:59;;;;;;;;;;;;;;;6.06;100.00;97138.06;5076309;28;19968;-86
2021/12/07 09:31:26;;;;;;;;;;;;;;;6.11;100.00;97137.50;5043004;28;20580;-87
2021/12/07 09:33:55;;;;;;;;;;;;;;;6.24;100.00;97116.13;5093150;28;19925;-87
2021/12/07 09:36:22;;;;;;;;;;;;;;;5.72;100.00;97121.16;5076392;28;19925;-86
2021/12/07 09:38:52;;;;;;;;;;;;;;;5.99;100.00;97071.72;5060113;28;19924;-85
2021/12/07 09:41:20;;;;;;;;;;;;;;;5.70;100.00;97080.03;5074385;28;20525;-86
2021/12/07 09:43:47;;;;;;;;;;;;;;;5.53;100.00;97048.84;5059309;28;19925;-87
2021/12/07 09:46:15;;;;;;;;;;;;;;;5.72;100.00;97043.59;5075996;28;19924;-87
2021/12/07 09:48:43;;;;;;;;;;;;;;;6.32;100.00;97042.59;5059600;28;19931;-89
2021/12/07 09:51:11;;;;;;;;;;;;;;;6.24;100.00;97010.75;5059408;28;19932;-88
2021/12/07 09:53:38;;;;;;;;;;;;;;;6.08;100.00;96999.75;5075925;28;20009;-87
2021/12/07 09:56:07;;;;;;;;;;;;;;;6.32;100.00;96998.22;5076052;28;19956;-87
2021/12/07 09:58:35;;;;;;;;;;;;;;;6.83;100.00;96960.84;5059484;28;19932;-87
2021/12/07 10:01:03;;;;;;;;;;;;;;;6.57;100.00;96959.34;5074543;28;20291;-87
2021/12/07 10:03:30;;;;;;;;;;;;;;;5.88;100.00;96935.47;5075939;28;19929;-87
2021/12/07 10:05:58;;;;;;;;;;;;;;;6.19;100.00;96928.91;5091861;28;19925;-88
2021/12/07 10:08:25;;;;;;;;;;;;;;;6.19;100.00;96928.91;5057919;28;19931;-87
2021/12/07 10:10:55;;;;;;;;;;;;;;;6.82;100.00;96920.41;5074884;28;20028;-87
2021/12/07 10:13:24;;;;;;;;;;;;;;;6.49;100.00;96908.88;5058031;28;19924;-87
2021/12/07 10:15:53;;;;;;;;;;;;;;;6.64;100.00;96921.03;5074234;28;19932;-87
2021/12/07 10:18:22;;;;;;;;;;;;;;;6.34;100.00;96879.28;5058015;28;20291;-87
2021/12/07 10:21:10;;;;;;;;;;;;;;;6.70;100.00;96888.72;5058054;28;19931;-87
2021/12/07 10:23:45;;;;;;;;;;;;;;;6.67;100.00;96897.16;5074472;28;20015;-86
2021/12/07 10:26:12;;;;;;;;;;;;;;;5.98;100.00;96865.06;5057798;28;19931;-87
2021/12/07 10:28:40;;;;;;;;;;;;;;;6.57;100.00;96851.16;5057982;28;19924;-88
2021/12/07 10:31:07;;;;;;;;;;;;;;;6.71;100.00;96856.97;5056926;28;19931;-87
2021/12/07 10:33:41;;;;;;;;;;;;;;;6.45;100.00;96829.78;5057690;28;20334;-87
2021/12/07 10:36:08;;;;;;;;;;;;;;;6.41;100.00;96845.75;5074319;28;19995;-87
2021/12/07 10:38:37;;;;;;;;;;;;;;;6.13;100.00;96819.00;5074258;28;19924;-87
2021/12/07 10:41:06;;;;;;;;;;;;;;;5.68;100.00;96799.88;5074255;28;19970;-86
2021/12/07 10:43:41;;;;;;;;;;;;;;;5.97;100.00;96803.31;5057643;28;19981;-87
2021/12/07 10:46:27;;;;;;;;;;;;;;;6.03;100.00;96771.03;5091269;28;19928;-87
2021/12/07 10:49:12;;;;;;;;;;;;;;;6.00;100.00;96774.69;5074621;28;19929;-87
2021/12/07 10:51:40;;;;;;;;;;;;;;;6.48;100.00;96760.28;5073964;28;19936;-88
2021/12/07 10:54:08;;;;;;;;;;;;;;;6.23;100.00;96727.16;5057475;28;19954;-87
2021/12/07 10:56:37;;;;;;;;;;;;;;;6.10;100.00;96737.53;5057483;28;19931;-88
2021/12/07 10:59:06;;;;;;;;;;;;;;;5.99;100.00;96697.53;5056665;28;20371;-87
2021/12/07 11:01:40;;;;;;;;;;;;;;;5.92;100.00;96675.63;5073754;28;19925;-87
2021/12/07 11:04:19;;;;;;;;;;;;;;;5.95;100.00;96671.94;5041379;28;19978;-88
2021/12/07 11:07:05;;;;;;;;;;;;;;;6.01;100.00;96695.09;5041320;28;19932;-87
2021/12/07 11:09:40;;;;;;;;;;;;;;;6.20;100.00;96641.31;5058014;28;19928;-89
2021/12/07 11:12:12;;;;;;;;;;;;;;;6.37;100.00;96639.88;5074471;28;19936;-87
2021/12/07 11:14:52;;;;;;;;;;;;;;;6.14;100.00;96654.22;5074668;28;19928;-88
2021/12/07 11:17:21;;;;;;;;;;;;;;;6.38;100.00;96635.88;5091348;28;20030;-87
2021/12/07 11:19:50;;;;;;;;;;;;;;;6.60;100.00;96608.88;5041008;28;19929;-86
2021/12/07 11:22:24;;;;;;;;;;;;;;;6.35;100.00;96615.38;5075805;28;20279;-86
2021/12/07 11:24:52;;;;;;;;;;;;;;;5.93;100.00;96600.34;5057857;28;19928;-85
2021/12/07 11:30:08;;;;;;;;;;;;;;;6.49;100.00;96526.09;5074366;28;20037;-89
2021/12/07 11:32:36;;;;;;;;;;;;;;;6.59;100.00;96532.41;5057469;28;19924;-88
2021/12/07 11:35:27;;;;;;;;;;;;;;;6.61;100.00;96533.53;5074217;28;20025;-87
2021/12/07 11:37:55;;;;;;;;;;;;;;;6.19;100.00;96512.25;5034426;28;19925;-87
2021/12/07 11:40:24;;;;;;;;;;;;;;;5.94;100.00;96429.31;5090704;28;19924;-87
2021/12/07 11:42:51;;;;;;;;;;;;;;;6.25;100.00;96464.06;5072582;28;20364;-85
2021/12/07 11:45:25;;;;;;;;;;;;;;;5.98;100.00;96441.78;5089859;28;20491;-86
2021/12/07 11:47:56;;;;;;;;;;;;;;;6.26;100.00;96434.31;5057685;28;19928;-84
2021/12/07 11:50:23;;;;;;;;;;;;;;;6.47;100.00;96452.88;5057459;28;19924;-88
2021/12/07 11:52:53;;;;;;;;;;;;;;;6.41;100.00;96429.75;5073688;28;19929;-88
2021/12/07 11:55:20;;;;;;;;;;;;;;;6.47;100.00;96434.22;5073664;28;20027;-88
2021/12/07 11:57:48;;;;;;;;;;;;;;;6.19;100.00;96415.22;5057847;28;19971;-86
2021/12/07 12:00:29;;;;;;;;;;;;;;;6.75;100.00;96360.91;5087041;28;19925;-88
2021/12/07 12:02:56;;;;;;;;;;;;;;;6.48;100.00;96369.19;5073360;28;19925;-87
2021/12/07 12:05:23;;;;;;;;;;;;;;;6.54;100.00;96341.63;5073376;28;20015;-88
2021/12/07 12:07:51;;;;;;;;;;;;;;;6.55;100.00;96348.72;5107094;28;19985;-88
2021/12/07 12:10:19;;;;;;;;;;;;;;;6.55;100.00;96318.97;5056558;28;19924;-88
2021/12/07 12:12:56;;;;;;;;;;;;;;;6.10;100.00;96318.19;5072934;28;19947;-87
2021/12/07 12:15:32;;;;;;;;;;;;;;;6.41;100.00;96330.69;5056972;28;19924;-86
2021/12/07 12:18:03;;;;;;;;;;;;;;;6.16;100.00;96319.09;5089929;28;20322;-86
2021/12/07 12:20:34;;;;;;;;;;;;;;;6.39;100.00;96322.03;5072809;28;19928;-86
2021/12/07 12:23:08;;;;;;;;;;;;;;;5.94;100.00;96299.06;5057050;28;20306;-87
2021/12/07 12:25:35;;;;;;;;;;;;;;;6.24;100.00;96312.03;5106460;28;20305;-87
2021/12/07 12:28:03;;;;;;;;;;;;;;;6.56;100.00;96314.19;5072814;28;20011;-85
2021/12/07 12:30:35;;;;;;;;;;;;;;;6.50;100.00;96252.25;5073272;28;19935;-85
2021/12/07 12:33:04;;;;;;;;;;;;;;;6.19;100.00;96259.97;5089601;28;19932;-83
2021/12/07 12:35:42;;;;;;;;;;;;;;;6.32;100.00;96307.72;5089707;28;19928;-84
2021/12/07 12:38:18;;;;;;;;;;;;;;;6.46;100.00;96255.19;5089709;28;19999;-84
2021/12/07 12:40:57;;;;;;;;;;;;;;;6.69;100.00;96242.69;5072508;28;19924;-84
2021/12/07 12:43:41;;;;;;;;;;;;;;;5.77;100.00;96231.25;5055913;28;19925;-84
2021/12/07 12:46:09;;;;;;;;;;;;;;;6.07;100.00;96250.59;5056458;28;20022;-84
2021/12/07 12:48:37;;;;;;;;;;;;;;;6.30;100.00;96225.00;5089314;28;19925;-84
2021/12/07 12:51:05;;;;;;;;;;;;;;;6.56;100.00;96178.28;5073954;28;19968;-84
2021/12/07 12:53:34;;;;;;;;;;;;;;;6.83;100.00;96205.97;5088412;28;19932;-87
2021/12/07 12:56:04;;;;;;;;;;;;;;;6.96;100.00;96145.47;5072088;28;20022;-85
2021/12/07 12:58:33;;;;;;;;;;;;;;;6.75;100.00;96157.59;5039148;28;19947;-84
2021/12/07 13:01:04;;;;;;;;;;;;;;;6.98;100.00;96129.13;5038318;28;19982;-86
2021/12/07 13:03:42;;;;;;;;;;;;;;;6.95;100.00;96130.81;5071542;28;21600;-87
2021/12/07 13:06:12;;;;;;;;;;;;;;;6.81;100.00;96098.22;5055789;28;19947;-83
2021/12/07 13:08:57;;;;;;;;;;;;;;;6.75;100.00;96097.31;5089048;28;19924;-82
2021/12/07 13:11:40;;;;;;;;;;;;;;;6.90;100.00;96062.09;5055889;28;19924;-83
2021/12/07 13:14:11;;;;;;;;;;;;;;;6.67;100.00;96042.63;5072408;28;19929;-86
2021/12/07 13:16:47;;;;;;;;;;;;;;;7.13;100.00;96066.13;5072511;28;19931;-83
2021/12/07 13:19:15;;;;;;;;;;;;;;;6.83;100.00;96084.63;5072884;28;20027;-84
2021/12/07 13:21:43;;;;;;;;;;;;;;;6.64;100.00;96022.16;5072419;28;19925;-84
2021/12/07 13:24:20;;;;;;;;;;;;;;;6.79;100.00;96008.34;5072038;28;19948;-82
2021/12/07 13:26:51;;;;;;;;;;;;;;;7.41;100.00;96017.47;5072922;28;19978;-83
2021/12/07 13:29:20;;;;;;;;;;;;;;;7.09;100.00;95987.78;5073600;28;20368;-82
2021/12/07 13:31:54;;;;;;;;;;;;;;;7.28;100.00;95983.66;5106130;28;19931;-82
2021/12/07 13:34:29;;;;;;;;;;;;;;;7.25;100.00;95962.38;5086496;28;19935;-83
2021/12/07 13:36:57;;;;;;;;;;;;;;;6.65;100.00;95967.44;5106063;28;19924;-84
2021/12/07 13:39:24;;;;;;;;;;;;;;;6.94;100.00;95951.66;5105828;28;19960;-84
2021/12/07 13:41:59;;;;;;;;;;;;;;;7.26;100.00;95934.13;5055704;28;19932;-83
2021/12/07 13:44:36;;;;;;;;;;;;;;;7.00;100.00;95933.13;5072521;28;19928;-82
2021/12/07 13:47:05;;;;;;;;;;;;;;;7.04;100.00;95950.34;5072331;28;19924;-82
2021/12/07 13:49:33;;;;;;;;;;;;;;;6.99;100.00;95909.38;5088741;28;19925;-83
2021/12/07 13:52:07;;;;;;;;;;;;;;;6.70;100.00;95903.75;5055897;28;19924;-82
2021/12/07 13:54:38;;;;;;;;;;;;;;;6.23;100.00;95886.34;5072057;28;19924;-83
2021/12/07 13:57:05;;;;;;;;;;;;;;;6.79;100.00;95886.25;5073369;28;19931;-84
2021/12/07 13:59:32;;;;;;;;;;;;;;;7.32;100.00;95906.47;5088642;28;19928;-85
2021/12/07 14:01:59;;;;;;;;;;;;;;;7.05;100.00;95878.97;5088596;28;20386;-82
2021/12/07 14:04:27;;;;;;;;;;;;;;;6.80;100.00;95846.19;5072276;28;20435;-81
2021/12/07 14:06:54;;;;;;;;;;;;;;;7.40;100.00;95877.06;5076569;28;19925;-81
2021/12/07 14:09:21;;;;;;;;;;;;;;;7.09;100.00;95846.22;5074418;28;20017;-82
2021/12/07 14:11:56;;;;;;;;;;;;;;;6.90;100.00;95834.53;5070926;28;19933;-82
2021/12/07 14:14:24;;;;;;;;;;;;;;;6.41;100.00;95869.59;5092436;28;19925;-81
2021/12/07 14:16:55;;;;;;;;;;;;;;;6.79;100.00;95845.41;5074670;28;19977;-82
2021/12/07 14:19:23;;;;;;;;;;;;;;;6.77;100.00;95858.25;5075124;28;19925;-83
2021/12/07 14:21:51;;;;;;;;;;;;;;;6.44;100.00;95880.50;5075143;28;19924;-82
2021/12/07 14:24:20;;;;;;;;;;;;;;;6.95;100.00;95808.88;5076605;28;20387;-82
2021/12/07 14:26:48;;;;;;;;;;;;;;;7.03;100.00;95839.78;5075507;28;19931;-82
2021/12/07 14:29:18;;;;;;;;;;;;;;;6.98;100.00;95802.38;5076506;28;20401;-84
2021/12/07 14:31:47;;;;;;;;;;;;;;;6.62;100.00;95802.72;5042242;28;19924;-83
2021/12/07 14:34:22;;;;;;;;;;;;;;;6.60;100.00;95815.53;5076524;28;20015;-83
2021/12/07 14:36:54;;;;;;;;;;;;;;;6.90;100.00;95812.34;5058458;28;19931;-84
2021/12/07 14:39:54;;;;;;;;;;;;;;;7.80;100.00;95829.25;5091818;28;19994;-80
2021/12/07 14:42:23;;;;;;;;;;;;;;;7.74;100.00;95823.59;5090561;28;19928;-80
2021/12/07 14:44:51;;;;;;;;;;;;;;;6.77;100.00;95872.84;5073867;28;19973;-79
2021/12/07 14:47:19;;;;;;;;;;;;;;;7.36;100.00;95887.63;5090523;28;19929;-80
2021/12/07 14:49:50;;;;;;;;;;;;;;;7.55;100.00;95922.28;5091422;28;20382;-80